Betancuria — EAMH — position and weather

sailwx.info

Track history (hours):
 
Tides and Currents Weather Stations Pressure Air Temp Water Temp Dewpoint Dewpoint Depression Visibility Wind Speed Wind Dir Waves Ship Positions

Betancuria

Last reported at 2014-Aug-02 04:29 UTC. Time now 2014-Aug-02 04:38 UTC.
Position N 36°56' E 007°49'.

Length 141 m; draft 4.7 m.

Type: Ship. MMSI: 224471000.

Date/timePositionNaut miles runAvg speedWind from/ knotsBaromVisibWave heightAir tempDewpointWater temp
2014-Aug-02 04:29N 36°56' E 007°49'0 0.0
2014-Aug-01 05:08N 36°56' E 007°49'0 0.0
2014-Aug-01 04:32N 36°56' E 007°49'0 0.0
2014-Aug-01 01:29N 36°56' E 007°49'  
2014-Jul-29 01:14N 37°03' E 002°57'1212.8
2014-Jul-29 00:19N 36°60' E 002°42'1312.2
2014-Jul-28 23:15N 36°57' E 002°27'3211.9
2014-Jul-28 20:33N 36°50' E 001°48'5711.2
2014-Jul-28 15:29N 36°42' E 000°37'1311.7
2014-Jul-28 14:24N 36°39' E 000°22'328 7.1
2014-Jul-26 16:18N 35°56' W 006°22'2712.8
2014-Jul-26 14:13N 36°05' W 006°53'812.4
2014-Jul-26 13:33N 36°07' W 007°03'1812.2
2014-Jul-26 12:05N 36°11' W 007°24'712.3
2014-Jul-26 11:33N 36°13' W 007°32'1212.5
2014-Jul-26 10:33N 36°15' W 007°48'3712.3
2014-Jul-26 07:31N 36°24' W 008°33'1212.4
2014-Jul-26 06:32N 36°27' W 008°47'3711.7
2014-Jul-26 03:22N 36°43' W 009°29'911.6
2014-Jul-26 02:33N 36°51' W 009°34'1211.9
2014-Jul-26 01:32N 37°03' W 009°38'1212.1
2014-Jul-26 00:33N 37°15' W 009°41'1612.6
2014-Jul-25 23:16N 37°30' W 009°46'912.3
2014-Jul-25 22:32N 37°39' W 009°48'1212.2
2014-Jul-25 21:33N 37°51' W 009°52'1211.9
2014-Jul-25 20:33N 38°02' W 009°56'1212.1
2014-Jul-25 19:32N 38°14' W 010°01'1212.1
2014-Jul-25 18:33N 38°26' W 010°04'366 8.8
2014-Jul-24 01:10N 43°43' W 006°02'812.3
2014-Jul-24 00:31N 43°42' W 005°51'1312.1
2014-Jul-23 23:27N 43°40' W 005°33'1112.1
2014-Jul-23 22:31N 43°39' W 005°18'4811.9
2014-Jul-23 18:29N 43°36' W 004°12'1011.3
2014-Jul-23 17:33N 43°35' W 003°57'1211.8
2014-Jul-23 16:30N 43°34' W 003°40'1112.1
2014-Jul-23 15:33N 43°31' W 003°25'1111.2
2014-Jul-23 14:33N 43°25' W 003°12'7 7.0
2014-Jul-23 13:33N 43°21' W 003°04'0 0.1
2014-Jul-23 12:23N 43°22' W 003°04'  
Track history (hours):
 
Tides and Currents Weather Stations Pressure Air Temp Water Temp Dewpoint Dewpoint Depression Visibility Wind Speed Wind Dir Waves Ship Positions

Betancuria

Last reported at 2014-Aug-02 04:29 UTC. Time now 2014-Aug-02 04:38 UTC.
Position N 36°56' E 007°49'.

Length 141 m; draft 4.7 m.

Type: Ship. MMSI: 224471000.

Date/timePositionNaut miles runAvg speedWind from/ knotsBaromVisibWave heightAir tempDewpointWater temp
2014-Aug-02 04:29N 36°56' E 007°49'0 0.0
2014-Aug-01 05:08N 36°56' E 007°49'0 0.0
2014-Aug-01 04:32N 36°56' E 007°49'0 0.0
2014-Aug-01 01:29N 36°56' E 007°49'  
2014-Jul-29 01:14N 37°03' E 002°57'1212.8
2014-Jul-29 00:19N 36°60' E 002°42'1312.2
2014-Jul-28 23:15N 36°57' E 002°27'3211.9
2014-Jul-28 20:33N 36°50' E 001°48'5711.2
2014-Jul-28 15:29N 36°42' E 000°37'1311.7
2014-Jul-28 14:24N 36°39' E 000°22'328 7.1
2014-Jul-26 16:18N 35°56' W 006°22'2712.8
2014-Jul-26 14:13N 36°05' W 006°53'812.4
2014-Jul-26 13:33N 36°07' W 007°03'1812.2
2014-Jul-26 12:05N 36°11' W 007°24'712.3
2014-Jul-26 11:33N 36°13' W 007°32'1212.5
2014-Jul-26 10:33N 36°15' W 007°48'3712.3
2014-Jul-26 07:31N 36°24' W 008°33'1212.4
2014-Jul-26 06:32N 36°27' W 008°47'3711.7
2014-Jul-26 03:22N 36°43' W 009°29'911.6
2014-Jul-26 02:33N 36°51' W 009°34'1211.9
2014-Jul-26 01:32N 37°03' W 009°38'1212.1
2014-Jul-26 00:33N 37°15' W 009°41'1612.6
2014-Jul-25 23:16N 37°30' W 009°46'912.3
2014-Jul-25 22:32N 37°39' W 009°48'1212.2
2014-Jul-25 21:33N 37°51' W 009°52'1211.9
2014-Jul-25 20:33N 38°02' W 009°56'1212.1
2014-Jul-25 19:32N 38°14' W 010°01'1212.1
2014-Jul-25 18:33N 38°26' W 010°04'366 8.8
2014-Jul-24 01:10N 43°43' W 006°02'812.3
2014-Jul-24 00:31N 43°42' W 005°51'1312.1
2014-Jul-23 23:27N 43°40' W 005°33'1112.1
2014-Jul-23 22:31N 43°39' W 005°18'4811.9
2014-Jul-23 18:29N 43°36' W 004°12'1011.3
2014-Jul-23 17:33N 43°35' W 003°57'1211.8
2014-Jul-23 16:30N 43°34' W 003°40'1112.1
2014-Jul-23 15:33N 43°31' W 003°25'1111.2
2014-Jul-23 14:33N 43°25' W 003°12'7 7.0
2014-Jul-23 13:33N 43°21' W 003°04'0 0.1
2014-Jul-23 12:23N 43°22' W 003°04'  

Dump ship's entire track history